Main page
METAR-TAF:

METAR-TAF

Airports :

Vienna International Airport

Vienna, Austria

latitude: 48-07N, longitude: 016-34E, elevation: 183 m

Current weather observation

The report was made 16 minutes ago, at 04:20 UTC
Wind 3 kt from the North/Northwest
Temperature 16°C
Humidity 77%
Pressure 1019 hPa
Visibility 10 km or more
no clouds below 1500 m and no cumulonimbus

METAR: LOWW 160420Z 34003KT CAVOK 16/12 Q1019 NOSIG

Time: 06:36 (04:36 UTC)

Forecast

The report was made 2 hours and 21 minutes ago, at 02:15 UTC
Forecast valid from 16 at 03 UTC to 17 at 09 UTC
Wind 3 kt from the Northwest
Visibility 10 km or more
no clouds below 1500 m and no cumulonimbus
Becoming
from 16 at 06 UTC to 16 at 08 UTC
Wind 7 kt from the North/Northeast
Becoming
from 16 at 15 UTC to 16 at 17 UTC
Wind 2 kt from variable directions
Becoming
from 17 at 06 UTC to 17 at 08 UTC
Wind 7 kt from the Southeast

TAF: LOWW 160215Z 1603/1709 32003KT CAVOK TX30/1614Z TN14/1703Z BECMG 1606/1608 03007KT BECMG 1615/1617 VRB02KT BECMG 1706/1708 14007KT

Weather observations and forecasts of more than 4000 airports (METAR and TAF reports).

The available stations are represented by yellow and red dots on the map.

Hover mouse over dot to see the name of the station.

Then click to see weather observations and forecasts.

To change the map : click on the green buttons with a black cross to zoom in, on the green button with a dash to zoom out, or on the green arrows for adjacent maps.


METAR-TAF: